createdAt,value
2022-10-13T00:01:11.330Z,101465.13
2022-10-13T00:03:40.228Z,101475.63
2022-10-13T00:06:10.249Z,101470.84
2022-10-13T00:08:40.994Z,101462.38
2022-10-13T00:11:13.734Z,101467.16
2022-10-13T00:13:42.571Z,101472.88
2022-10-13T00:16:11.307Z,101416.53
2022-10-13T00:18:39.822Z,101449.22
2022-10-13T00:21:09.694Z,101472.19
2022-10-13T00:23:40.094Z,101472.19
2022-10-13T00:26:10.910Z,101465.81
2022-10-13T00:28:39.780Z,101457.66
2022-10-13T00:31:17.073Z,101467.13
2022-10-13T00:33:45.286Z,101467.22
2022-10-13T00:36:13.425Z,101464.28
2022-10-13T00:38:43.946Z,101467.47
2022-10-13T00:41:12.388Z,101469.91
2022-10-13T00:43:52.924Z,101469.84
2022-10-13T00:46:21.763Z,101466.22
2022-10-13T00:48:51.405Z,101469.75
2022-10-13T00:51:22.742Z,101466.38
2022-10-13T00:53:54.829Z,101469.06
2022-10-13T00:56:25.096Z,101469.16
2022-10-13T00:58:54.843Z,101455.47
2022-10-13T01:01:23.261Z,101464.84
2022-10-13T01:03:51.339Z,101470.34
2022-10-13T01:06:23.591Z,101468.50
2022-10-13T01:08:54.837Z,101469.25
2022-10-13T01:11:43.310Z,101470.34
2022-10-13T01:14:18.890Z,101476.56
2022-10-13T01:16:56.887Z,101472.34
2022-10-13T01:19:46.075Z,101463.19
2022-10-13T01:22:27.337Z,101476.47
2022-10-13T01:25:04.736Z,101470.16
2022-10-13T01:28:00.549Z,101469.59
2022-10-13T01:30:35.864Z,101470.84
2022-10-13T01:33:21.384Z,101468.59
2022-10-13T01:36:10.736Z,101464.63
2022-10-13T01:38:45.862Z,101466.88
2022-10-13T01:41:19.707Z,101471.78
2022-10-13T01:43:52.996Z,101472.16
2022-10-13T01:46:26.134Z,101481.84
2022-10-13T01:48:57.450Z,101478.06
2022-10-13T01:51:27.890Z,101477.38
2022-10-13T01:53:55.895Z,101477.53
2022-10-13T01:56:24.082Z,101480.38
2022-10-13T01:58:53.881Z,101480.53
2022-10-13T02:01:40.282Z,101471.38
2022-10-13T02:04:20.010Z,101470.75
2022-10-13T02:06:54.019Z,101474.34
2022-10-13T02:09:29.854Z,101461.63
2022-10-13T02:12:06.785Z,101467.75
2022-10-13T02:14:39.514Z,101466.31
2022-10-13T02:17:09.414Z,101469.00
2022-10-13T02:19:39.171Z,101468.16
2022-10-13T02:22:09.802Z,101466.63
2022-10-13T02:24:38.207Z,101461.47
2022-10-13T02:27:07.381Z,101463.25
2022-10-13T02:29:35.804Z,101461.56
2022-10-13T02:32:03.796Z,101453.69
2022-10-13T02:34:33.272Z,101449.38
2022-10-13T02:37:01.303Z,101454.84
2022-10-13T02:39:29.521Z,101439.38
2022-10-13T02:41:57.566Z,101449.63
2022-10-13T02:44:25.762Z,101449.63
2022-10-13T02:46:53.848Z,101449.00
2022-10-13T02:49:21.917Z,101446.41
2022-10-13T02:51:51.297Z,101445.06
2022-10-13T02:54:19.528Z,101447.50
2022-10-13T02:56:47.519Z,101447.59
2022-10-13T02:59:15.514Z,101442.13
2022-10-13T03:01:44.876Z,101434.94
2022-10-13T03:04:13.126Z,101437.69
2022-10-13T03:06:41.197Z,101432.63
2022-10-13T03:09:10.497Z,101429.44
2022-10-13T03:11:38.545Z,101434.78
2022-10-13T03:14:06.611Z,101437.66
2022-10-13T03:16:34.790Z,101432.97
2022-10-13T03:19:02.852Z,101427.38
2022-10-13T03:21:31.400Z,101424.63
2022-10-13T03:23:59.486Z,101419.78
2022-10-13T03:26:28.980Z,101429.53
2022-10-13T03:28:57.056Z,101443.91
2022-10-13T03:31:25.282Z,101437.44
2022-10-13T03:33:53.519Z,101445.59
2022-10-13T03:36:21.755Z,101445.66
2022-10-13T03:38:49.859Z,101455.16
2022-10-13T03:41:19.992Z,101451.03
2022-10-13T03:43:49.422Z,101455.13
2022-10-13T03:46:19.273Z,101453.28
2022-10-13T03:48:48.138Z,101456.72
2022-10-13T03:51:18.228Z,101460.31
2022-10-13T03:53:46.737Z,101463.69
2022-10-13T03:56:17.679Z,101451.59
2022-10-13T03:58:46.069Z,101457.78
2022-10-13T04:01:17.063Z,101452.78
2022-10-13T04:03:45.311Z,101455.88
2022-10-13T04:06:13.419Z,101456.63
2022-10-13T04:08:41.465Z,101447.44
2022-10-13T04:11:12.182Z,101454.34
2022-10-13T04:13:40.463Z,101449.22
2022-10-13T04:16:10.789Z,101453.44
2022-10-13T04:18:44.453Z,101455.72
2022-10-13T04:21:14.000Z,101458.50
2022-10-13T04:23:42.026Z,101453.56
2022-10-13T04:26:16.972Z,101452.13
2022-10-13T04:28:45.322Z,101456.59
2022-10-13T04:31:13.323Z,101448.88
2022-10-13T04:33:42.714Z,101455.81
2022-10-13T04:36:13.473Z,101446.34
2022-10-13T04:38:42.082Z,101448.09
2022-10-13T04:41:11.848Z,101452.38
2022-10-13T04:43:39.827Z,101450.69
2022-10-13T04:46:10.160Z,101455.75
2022-10-13T04:48:38.106Z,101450.63
2022-10-13T04:51:09.513Z,101450.63
2022-10-13T04:53:37.984Z,101451.88
2022-10-13T04:56:08.580Z,101449.00
2022-10-13T04:58:36.930Z,101453.28
2022-10-13T05:01:06.901Z,101455.88
2022-10-13T05:03:35.491Z,101454.81
2022-10-13T05:06:03.409Z,101458.19
2022-10-13T05:08:34.191Z,101462.59
2022-10-13T05:11:03.418Z,101459.16
2022-10-13T05:13:31.903Z,101458.31
2022-10-13T05:15:59.964Z,101456.50
2022-10-13T05:18:28.313Z,101462.34
2022-10-13T05:20:56.219Z,101462.94
2022-10-13T05:23:24.387Z,101463.56
2022-10-13T05:25:53.921Z,101466.56
2022-10-13T05:28:22.297Z,101470.47
2022-10-13T05:30:50.665Z,101472.53
2022-10-13T05:33:18.635Z,101470.16
2022-10-13T05:35:46.623Z,101476.50
2022-10-13T05:38:14.660Z,101466.69
2022-10-13T05:40:42.770Z,101478.72
2022-10-13T05:43:12.158Z,101479.78
2022-10-13T05:45:41.017Z,101486.09
2022-10-13T05:48:08.971Z,101484.47
2022-10-13T05:50:37.400Z,101474.97
2022-10-13T05:53:05.433Z,101479.50
2022-10-13T05:55:33.460Z,101490.28
2022-10-13T05:58:03.570Z,101491.22
2022-10-13T06:00:32.948Z,101485.44
2022-10-13T06:03:08.554Z,101489.56
2022-10-13T06:05:37.335Z,101491.78
2022-10-13T06:08:05.810Z,101464.50
2022-10-13T06:10:34.056Z,101493.34
2022-10-13T06:13:02.146Z,101491.06
2022-10-13T06:15:30.173Z,101488.50
2022-10-13T06:18:00.024Z,101492.41
2022-10-13T06:20:28.622Z,101486.53
2022-10-13T06:22:57.143Z,101489.56
2022-10-13T06:25:25.173Z,101471.63
2022-10-13T06:27:53.109Z,101485.16
2022-10-13T06:30:21.265Z,101481.13
2022-10-13T06:32:49.337Z,101489.81
2022-10-13T06:35:18.877Z,101478.75
2022-10-13T06:37:48.797Z,101478.34
2022-10-13T06:40:17.294Z,101479.28
2022-10-13T06:42:51.139Z,101479.94
2022-10-13T06:45:19.450Z,101479.56
2022-10-13T06:47:47.773Z,101477.19
2022-10-13T06:50:15.801Z,101471.75
2022-10-13T06:52:45.265Z,101478.16
2022-10-13T06:55:13.378Z,101466.41
2022-10-13T06:57:41.272Z,101471.50
2022-10-13T07:00:10.946Z,101472.66
2022-10-13T07:02:39.234Z,101485.94
2022-10-13T07:05:07.784Z,101487.41
2022-10-13T07:07:36.184Z,101480.00
2022-10-13T07:10:06.084Z,101470.09
2022-10-13T07:12:34.086Z,101477.91
2022-10-13T07:15:02.078Z,101480.50
2022-10-13T07:17:30.057Z,101481.91
2022-10-13T07:19:58.681Z,101487.25
2022-10-13T07:22:28.418Z,101441.69
2022-10-13T07:24:56.602Z,101485.41
2022-10-13T07:27:26.057Z,101482.94
2022-10-13T07:29:54.098Z,101481.53
2022-10-13T07:32:22.138Z,101481.53
2022-10-13T07:34:53.801Z,101476.03
2022-10-13T07:37:22.254Z,101476.66
2022-10-13T07:39:50.572Z,101474.88
2022-10-13T07:42:18.925Z,101475.56
2022-10-13T07:44:48.542Z,101477.00
2022-10-13T07:47:16.745Z,101482.41
2022-10-13T07:49:45.022Z,101475.41
2022-10-13T07:52:13.162Z,101485.91
2022-10-13T07:54:41.162Z,101492.34
2022-10-13T07:57:09.199Z,101492.47
2022-10-13T07:59:37.281Z,101483.28
2022-10-13T08:02:06.957Z,101482.72
2022-10-13T08:04:36.230Z,101476.31
2022-10-13T08:07:05.844Z,101486.19
2022-10-13T08:09:34.335Z,101483.88
2022-10-13T08:12:02.755Z,101476.78
2022-10-13T08:14:31.140Z,101481.25
2022-10-13T08:16:59.541Z,101468.34
2022-10-13T08:19:29.062Z,101476.94
2022-10-13T08:21:58.659Z,101464.13
2022-10-13T08:24:28.230Z,101468.31
2022-10-13T08:26:56.508Z,101464.00
2022-10-13T08:29:24.926Z,101463.97
2022-10-13T08:31:53.837Z,101467.56
2022-10-13T08:34:22.804Z,101464.06
2022-10-13T08:36:56.582Z,101464.44
2022-10-13T08:39:25.847Z,101466.19
2022-10-13T08:41:56.486Z,101463.13
2022-10-13T08:47:26.057Z,101467.31
2022-10-13T08:50:00.285Z,101446.22
2022-10-13T08:52:43.542Z,101460.00
2022-10-13T08:55:21.734Z,101456.25
2022-10-13T08:57:50.475Z,101455.44
2022-10-13T09:00:19.877Z,101456.06
2022-10-13T09:02:48.486Z,101455.25
2022-10-13T09:05:25.570Z,101444.44
2022-10-13T09:07:56.871Z,101451.44
2022-10-13T09:10:25.327Z,101456.00
2022-10-13T09:12:53.416Z,101454.22
2022-10-13T09:15:22.462Z,101452.22
2022-10-13T09:18:10.517Z,101449.25
2022-10-13T09:20:38.840Z,101442.16
2022-10-13T09:23:17.724Z,101446.25
2022-10-13T09:25:48.006Z,101449.88
2022-10-13T09:28:19.999Z,101455.03
2022-10-13T09:30:48.911Z,101449.13
2022-10-13T09:33:24.905Z,101443.47
2022-10-13T09:36:11.908Z,101440.78
2022-10-13T09:38:43.203Z,101431.75
2022-10-13T09:41:17.701Z,101449.03
2022-10-13T09:44:00.318Z,101437.13
2022-10-13T09:46:31.593Z,101443.47
2022-10-13T09:49:04.077Z,101414.47
2022-10-13T09:51:36.697Z,101432.31
2022-10-13T09:54:07.606Z,101424.09
2022-10-13T09:56:41.021Z,101425.97
2022-10-13T09:59:17.947Z,101418.66
2022-10-13T10:01:49.956Z,101416.91
2022-10-13T10:04:22.162Z,101415.78
2022-10-13T10:06:50.316Z,101416.78
2022-10-13T10:09:33.572Z,101410.41
2022-10-13T10:12:03.220Z,101407.91
2022-10-13T10:14:34.688Z,101401.72
2022-10-13T10:17:08.816Z,101402.06
2022-10-13T10:20:00.702Z,101404.00
2022-10-13T10:22:38.933Z,101398.00
2022-10-13T10:25:33.395Z,101380.44
2022-10-13T10:28:24.199Z,101385.63
2022-10-13T10:31:00.524Z,101386.78
2022-10-13T10:33:49.701Z,101388.16
2022-10-13T10:36:23.744Z,101373.06
2022-10-13T10:38:55.613Z,101379.09
2022-10-13T10:41:39.361Z,101368.38
2022-10-13T10:44:11.917Z,101364.00
2022-10-13T10:46:44.381Z,101363.66
2022-10-13T10:49:19.198Z,101363.84
2022-10-13T10:51:49.241Z,101349.31
2022-10-13T10:54:32.646Z,101351.41
2022-10-13T10:57:08.582Z,101348.63
2022-10-13T10:59:50.912Z,101337.72
2022-10-13T11:02:39.032Z,101330.28
2022-10-13T11:05:07.858Z,101339.03
2022-10-13T11:08:01.022Z,101331.97
2022-10-13T11:10:30.103Z,101323.31
2022-10-13T11:13:23.774Z,101315.28
2022-10-13T11:15:52.285Z,101314.59
2022-10-13T11:19:06.149Z,101312.78
2022-10-13T11:22:10.645Z,101314.91
2022-10-13T11:25:06.466Z,101307.81
2022-10-13T11:27:43.730Z,101297.25
2022-10-13T11:30:51.743Z,101301.69
2022-10-13T11:33:57.141Z,101273.13
2022-10-13T11:36:40.076Z,101285.31
2022-10-13T11:42:14.950Z,101280.72
2022-10-13T11:44:53.094Z,101291.16
2022-10-13T11:47:45.248Z,101282.84
2022-10-13T11:50:23.821Z,101282.41
2022-10-13T11:53:16.453Z,101283.66
2022-10-13T11:55:50.346Z,101281.16
2022-10-13T11:58:21.437Z,101274.50
2022-10-13T12:00:58.602Z,101258.34
2022-10-13T12:03:31.692Z,101263.34
2022-10-13T12:06:03.706Z,101272.09
2022-10-13T12:08:35.296Z,101260.97
2022-10-13T12:11:07.988Z,101263.34
2022-10-13T12:13:37.653Z,101248.34
2022-10-13T12:16:08.441Z,101251.44
2022-10-13T12:18:40.315Z,101245.88
2022-10-13T12:21:12.580Z,101249.75
2022-10-13T12:23:41.134Z,101258.25
2022-10-13T12:26:16.301Z,101260.03
2022-10-13T12:28:51.462Z,101249.75
2022-10-13T12:31:22.482Z,101241.13
2022-10-13T12:33:57.411Z,101258.63
2022-10-13T12:36:31.062Z,101236.97
2022-10-13T12:39:03.892Z,101248.50
2022-10-13T12:41:34.895Z,101247.25
2022-10-13T12:44:06.528Z,101246.13
2022-10-13T12:46:45.711Z,101233.38
2022-10-13T12:49:21.935Z,101237.25
2022-10-13T12:51:52.603Z,101229.19
2022-10-13T12:54:24.431Z,101228.34
2022-10-13T12:56:56.648Z,101231.16
2022-10-13T12:59:26.747Z,101225.88
2022-10-13T13:01:58.223Z,101216.16
2022-10-13T13:04:43.909Z,101231.44
2022-10-13T13:07:31.195Z,101216.28
2022-10-13T13:10:12.589Z,101229.63
2022-10-13T13:12:41.111Z,101227.00
2022-10-13T13:15:34.355Z,101199.47
2022-10-13T13:18:35.992Z,101220.56
2022-10-13T13:21:07.355Z,101211.44
2022-10-13T13:23:35.906Z,101212.94
2022-10-13T13:26:09.054Z,101217.66
2022-10-13T13:28:37.285Z,101218.63
2022-10-13T13:31:05.882Z,101219.06
2022-10-13T13:33:34.256Z,101204.06
2022-10-13T13:36:02.461Z,101212.25
2022-10-13T13:38:33.413Z,101204.91
2022-10-13T13:41:04.039Z,101191.69
2022-10-13T13:43:32.501Z,101207.97
2022-10-13T13:46:01.109Z,101208.53
2022-10-13T13:48:29.261Z,101207.81
2022-10-13T13:50:57.359Z,101211.28
2022-10-13T13:53:25.867Z,101202.13
2022-10-13T13:55:55.735Z,101201.16
2022-10-13T13:58:23.913Z,101206.16
2022-10-13T14:00:52.182Z,101204.22
2022-10-13T14:03:20.613Z,101210.28
2022-10-13T14:05:48.901Z,101203.63
2022-10-13T14:08:16.990Z,101198.66
2022-10-13T14:10:45.679Z,101198.38
2022-10-13T14:13:15.623Z,101193.38
2022-10-13T14:15:43.915Z,101198.09
2022-10-13T14:18:13.628Z,101201.72
2022-10-13T14:20:43.313Z,101190.84
2022-10-13T14:23:12.986Z,101182.56
2022-10-13T14:25:41.117Z,101188.38
2022-10-13T14:28:09.237Z,101180.81
2022-10-13T14:30:40.738Z,101178.31
2022-10-13T14:33:10.081Z,101172.41
2022-10-13T14:35:38.177Z,101184.41
2022-10-13T14:38:06.255Z,101177.34
2022-10-13T14:40:34.659Z,101198.94
2022-10-13T14:43:02.956Z,101178.53
2022-10-13T14:45:31.222Z,101179.31
2022-10-13T14:48:00.908Z,101176.13
2022-10-13T14:50:29.028Z,101192.78
2022-10-13T14:52:57.135Z,101190.00
2022-10-13T14:55:25.576Z,101195.28
2022-10-13T14:57:53.693Z,101198.81
2022-10-13T15:00:21.941Z,101201.38
2022-10-13T15:02:50.353Z,101206.97
2022-10-13T15:05:20.252Z,101192.50
2022-10-13T15:07:48.681Z,101193.56
2022-10-13T15:10:17.237Z,101201.81
2022-10-13T15:12:45.486Z,101199.81
2022-10-13T15:15:14.015Z,101199.69
2022-10-13T15:17:42.361Z,101202.59
2022-10-13T15:20:11.972Z,101208.88
2022-10-13T15:22:41.910Z,101201.03
2022-10-13T15:25:12.009Z,101208.63
2022-10-13T15:27:42.245Z,101206.19
2022-10-13T15:30:11.528Z,101207.41
2022-10-13T15:32:39.874Z,101214.59
2022-10-13T15:35:08.862Z,101220.34
2022-10-13T15:37:37.037Z,101216.31
2022-10-13T15:40:07.871Z,101223.84
2022-10-13T15:42:36.130Z,101217.69
2022-10-13T15:45:09.863Z,101216.19
2022-10-13T15:47:39.433Z,101225.75
2022-10-13T15:50:08.860Z,101228.97
2022-10-13T15:52:39.664Z,101225.81
2022-10-13T15:55:11.681Z,101219.72
2022-10-13T15:57:40.440Z,101222.25
2022-10-13T16:00:12.059Z,101220.34
2022-10-13T16:02:41.852Z,101221.03
2022-10-13T16:05:11.674Z,101232.50
2022-10-13T16:07:41.228Z,101224.25
2022-10-13T16:10:13.651Z,101232.66
2022-10-13T16:12:45.620Z,101216.53
2022-10-13T16:15:18.395Z,101229.50
2022-10-13T16:17:46.910Z,101231.09
2022-10-13T16:20:15.421Z,101232.59
2022-10-13T16:22:43.591Z,101235.69
2022-10-13T16:25:13.373Z,101239.69
2022-10-13T16:27:44.261Z,101237.63
2022-10-13T16:30:13.530Z,101238.47
2022-10-13T16:32:41.686Z,101235.13
2022-10-13T16:35:10.359Z,101216.59
2022-10-13T16:37:38.733Z,101237.44
2022-10-13T16:40:08.029Z,101229.47
2022-10-13T16:42:37.737Z,101233.88
2022-10-13T16:45:07.442Z,101223.19
2022-10-13T16:47:35.485Z,101232.63
2022-10-13T16:50:06.699Z,101230.56
2022-10-13T16:52:34.843Z,101228.28
2022-10-13T16:55:03.545Z,101228.56
2022-10-13T16:57:32.719Z,101228.47
2022-10-13T17:00:02.703Z,101228.91
2022-10-13T17:02:30.917Z,101214.66
2022-10-13T17:04:59.282Z,101213.19
2022-10-13T17:07:27.424Z,101211.94
2022-10-13T17:09:55.795Z,101215.28
2022-10-13T17:12:25.263Z,101218.25
2022-10-13T17:14:53.638Z,101231.72
2022-10-13T17:17:23.511Z,101223.88
2022-10-13T17:19:52.344Z,101226.47
2022-10-13T17:22:20.580Z,101221.44
2022-10-13T17:24:49.473Z,101217.59
2022-10-13T17:27:18.446Z,101214.56
2022-10-13T17:29:46.834Z,101209.63
2022-10-13T17:32:15.158Z,101212.34
2022-10-13T17:34:44.819Z,101208.53
2022-10-13T17:37:13.191Z,101208.53
2022-10-13T17:39:41.846Z,101209.44
2022-10-13T17:42:09.994Z,101204.72
2022-10-13T17:44:38.585Z,101208.06
2022-10-13T17:47:07.375Z,101210.25
2022-10-13T17:49:35.512Z,101207.22
2022-10-13T17:52:05.572Z,101208.16
2022-10-13T17:54:33.652Z,101207.34
2022-10-13T17:57:01.829Z,101201.56
2022-10-13T17:59:30.062Z,101212.78
2022-10-13T18:01:58.210Z,101184.72
2022-10-13T18:04:29.144Z,101198.13
2022-10-13T18:06:57.376Z,101200.63
2022-10-13T18:09:26.902Z,101194.47
2022-10-13T18:11:55.464Z,101198.00
2022-10-13T18:14:25.135Z,101200.03
2022-10-13T18:16:54.220Z,101199.06
2022-10-13T18:19:23.111Z,101213.59
2022-10-13T18:21:53.132Z,101206.50
2022-10-13T18:24:21.940Z,101204.63
2022-10-13T18:26:51.859Z,101208.16
2022-10-13T18:29:20.411Z,101205.88
2022-10-13T18:31:48.942Z,101208.06
2022-10-13T18:34:19.090Z,101209.63
2022-10-13T18:36:48.726Z,101208.34
2022-10-13T18:39:19.605Z,101203.50
2022-10-13T18:41:48.831Z,101206.72
2022-10-13T18:44:19.031Z,101202.31
2022-10-13T18:46:49.764Z,101214.66
2022-10-13T18:49:21.705Z,101214.13
2022-10-13T18:51:51.819Z,101215.38
2022-10-13T18:54:20.207Z,101216.91
2022-10-13T18:56:48.511Z,101219.78
2022-10-13T18:59:18.418Z,101219.97
2022-10-13T19:01:46.883Z,101218.63
2022-10-13T19:04:16.925Z,101227.66
2022-10-13T19:06:46.721Z,101227.31
2022-10-13T19:09:17.563Z,101232.09
2022-10-13T19:11:46.083Z,101221.94
2022-10-13T19:14:14.733Z,101222.25
2022-10-13T19:16:45.050Z,101226.91
2022-10-13T19:19:13.456Z,101231.78
2022-10-13T19:21:41.981Z,101232.13
2022-10-13T19:24:10.996Z,101232.78
2022-10-13T19:26:39.566Z,101238.09
2022-10-13T19:29:10.201Z,101229.59
2022-10-13T19:31:39.545Z,101236.41
2022-10-13T19:34:09.648Z,101235.38
2022-10-13T19:36:41.345Z,101229.41
2022-10-13T19:39:13.099Z,101239.00
2022-10-13T19:41:41.913Z,101241.34
2022-10-13T19:44:10.367Z,101246.38
2022-10-13T19:46:38.736Z,101237.44
2022-10-13T19:49:08.837Z,101246.75
2022-10-13T19:51:37.620Z,101233.13
2022-10-13T19:54:06.550Z,101238.25
2022-10-13T19:56:34.626Z,101250.56
2022-10-13T19:59:04.426Z,101246.00
2022-10-13T20:01:33.059Z,101239.84
2022-10-13T20:04:01.445Z,101245.66
2022-10-13T20:06:31.480Z,101246.50
2022-10-13T20:08:59.740Z,101242.88
2022-10-13T20:11:27.948Z,101237.91
2022-10-13T20:13:56.452Z,101249.19
2022-10-13T20:16:26.488Z,101249.56
2022-10-13T20:18:55.947Z,101250.53
2022-10-13T20:21:24.761Z,101251.81
2022-10-13T20:23:54.845Z,101244.81
2022-10-13T20:26:23.878Z,101242.88
2022-10-13T20:28:53.437Z,101218.91
2022-10-13T20:31:23.070Z,101237.56
2022-10-13T20:33:56.004Z,101246.94
2022-10-13T20:36:25.847Z,101234.28
2022-10-13T20:38:56.350Z,101232.69
2022-10-13T20:41:26.333Z,101228.13
2022-10-13T20:43:56.300Z,101222.63
2022-10-13T20:46:24.955Z,101223.38
2022-10-13T20:49:11.589Z,101217.78
2022-10-13T20:51:40.705Z,101225.13
2022-10-13T20:54:10.853Z,101215.63
2022-10-13T20:56:38.935Z,101213.59
2022-10-13T20:59:10.026Z,101207.03
2022-10-13T21:01:38.427Z,101209.47
2022-10-13T21:04:07.312Z,101199.03
2022-10-13T21:06:35.949Z,101209.06
2022-10-13T21:09:05.206Z,101206.28
2022-10-13T21:11:35.653Z,101204.81
2022-10-13T21:14:07.089Z,101211.41
2022-10-13T21:16:36.444Z,101203.84
2022-10-13T21:19:05.033Z,101205.75
2022-10-13T21:21:34.493Z,101191.09
2022-10-13T21:24:05.620Z,101195.28
2022-10-13T21:26:35.752Z,101198.38
2022-10-13T21:29:04.062Z,101191.47
2022-10-13T21:31:32.356Z,101192.22
2022-10-13T21:34:01.014Z,101193.81
2022-10-13T21:36:30.900Z,101186.47
2022-10-13T21:39:00.771Z,101193.16
2022-10-13T21:41:29.934Z,101186.06
2022-10-13T21:43:59.525Z,101186.53
2022-10-13T21:46:29.137Z,101174.41
2022-10-13T21:48:59.137Z,101183.50
2022-10-13T21:51:29.811Z,101178.31
2022-10-13T21:54:00.143Z,101187.38
2022-10-13T21:56:29.252Z,101184.31
2022-10-13T21:58:57.987Z,101184.47
2022-10-13T22:01:27.697Z,101182.69
2022-10-13T22:03:57.814Z,101174.78
2022-10-13T22:06:26.784Z,101183.09
2022-10-13T22:08:56.581Z,101190.91
2022-10-13T22:11:26.818Z,101186.72
2022-10-13T22:13:56.913Z,101180.19
2022-10-13T22:16:29.071Z,101188.41
2022-10-13T22:18:58.082Z,101185.34
2022-10-13T22:21:29.988Z,101176.50
2022-10-13T22:23:59.244Z,101178.75
2022-10-13T22:26:29.151Z,101181.53
2022-10-13T22:28:58.179Z,101187.94
2022-10-13T22:31:28.241Z,101189.00
2022-10-13T22:33:56.627Z,101187.88
2022-10-13T22:36:27.101Z,101195.31
2022-10-13T22:38:57.158Z,101194.19
2022-10-13T22:41:25.500Z,101190.44
2022-10-13T22:43:55.240Z,101188.84
2022-10-13T22:46:24.707Z,101198.16
2022-10-13T22:48:54.366Z,101195.16
2022-10-13T22:51:24.618Z,101203.34
2022-10-13T22:53:53.384Z,101197.84
2022-10-13T22:56:23.813Z,101202.63
2022-10-13T22:58:52.810Z,101203.06
2022-10-13T23:01:21.886Z,101200.91
2022-10-13T23:03:51.223Z,101194.19
2022-10-13T23:06:22.945Z,101184.56
2022-10-13T23:08:51.714Z,101176.38
2022-10-13T23:11:20.436Z,101195.19
2022-10-13T23:13:48.597Z,101199.06
2022-10-13T23:16:19.020Z,101203.84
2022-10-13T23:18:47.512Z,101206.78
2022-10-13T23:21:17.844Z,101206.47
2022-10-13T23:23:47.526Z,101206.88
2022-10-13T23:26:17.966Z,101211.81
2022-10-13T23:28:46.174Z,101209.31
2022-10-13T23:31:16.535Z,101190.66
2022-10-13T23:33:45.643Z,101203.25
2022-10-13T23:36:17.795Z,101205.00
2022-10-13T23:38:47.669Z,101196.88
2022-10-13T23:41:17.705Z,101199.13
2022-10-13T23:43:45.899Z,101197.53
2022-10-13T23:46:14.152Z,101192.59
2022-10-13T23:48:42.940Z,101203.13
2022-10-13T23:51:13.221Z,101197.44
2022-10-13T23:53:42.020Z,101188.53
2022-10-13T23:56:13.186Z,101187.25
2022-10-13T23:58:43.004Z,101192.44
